sensor_id;sensor_type;location;lat;lon;timestamp;P1;durP1;ratioP1;P2;durP2;ratioP2
52015;SDS011;38032;53.326;6.472;2023-04-06T00:01:56;12.32;;;8.50;;
52015;SDS011;38032;53.326;6.472;2023-04-06T00:04:22;12.38;;;8.85;;
52015;SDS011;38032;53.326;6.472;2023-04-06T00:06:48;15.50;;;8.77;;
52015;SDS011;38032;53.326;6.472;2023-04-06T00:09:13;12.85;;;8.57;;
52015;SDS011;38032;53.326;6.472;2023-04-06T00:11:39;14.00;;;9.20;;
52015;SDS011;38032;53.326;6.472;2023-04-06T00:14:05;13.35;;;8.60;;
52015;SDS011;38032;53.326;6.472;2023-04-06T00:16:31;12.52;;;8.60;;
52015;SDS011;38032;53.326;6.472;2023-04-06T00:18:57;13.23;;;8.80;;
52015;SDS011;38032;53.326;6.472;2023-04-06T00:21:23;14.65;;;9.32;;
52015;SDS011;38032;53.326;6.472;2023-04-06T00:23:50;14.00;;;9.48;;
52015;SDS011;38032;53.326;6.472;2023-04-06T00:26:16;16.13;;;8.32;;
52015;SDS011;38032;53.326;6.472;2023-04-06T00:28:42;12.43;;;8.60;;
52015;SDS011;38032;53.326;6.472;2023-04-06T00:31:08;14.90;;;9.23;;
52015;SDS011;38032;53.326;6.472;2023-04-06T00:33:33;16.05;;;8.85;;
52015;SDS011;38032;53.326;6.472;2023-04-06T00:35:59;12.55;;;8.40;;
52015;SDS011;38032;53.326;6.472;2023-04-06T00:38:25;13.52;;;8.50;;
52015;SDS011;38032;53.326;6.472;2023-04-06T00:40:51;15.30;;;9.48;;
52015;SDS011;38032;53.326;6.472;2023-04-06T00:43:17;14.75;;;9.18;;
52015;SDS011;38032;53.326;6.472;2023-04-06T00:45:43;13.43;;;9.07;;
52015;SDS011;38032;53.326;6.472;2023-04-06T00:48:09;11.98;;;8.25;;
52015;SDS011;38032;53.326;6.472;2023-04-06T00:50:35;12.52;;;8.75;;
52015;SDS011;38032;53.326;6.472;2023-04-06T00:53:01;15.82;;;9.27;;
52015;SDS011;38032;53.326;6.472;2023-04-06T00:55:27;15.27;;;9.27;;
52015;SDS011;38032;53.326;6.472;2023-04-06T00:57:53;22.35;;;8.85;;
52015;SDS011;38032;53.326;6.472;2023-04-06T01:00:22;19.08;;;10.00;;
52015;SDS011;38032;53.326;6.472;2023-04-06T01:02:48;14.27;;;9.10;;
52015;SDS011;38032;53.326;6.472;2023-04-06T01:05:14;13.50;;;9.73;;
52015;SDS011;38032;53.326;6.472;2023-04-06T01:07:40;13.85;;;9.20;;
52015;SDS011;38032;53.326;6.472;2023-04-06T01:10:06;12.90;;;8.93;;
52015;SDS011;38032;53.326;6.472;2023-04-06T01:12:32;16.95;;;9.27;;
52015;SDS011;38032;53.326;6.472;2023-04-06T01:14:58;14.65;;;9.25;;
52015;SDS011;38032;53.326;6.472;2023-04-06T01:17:24;13.77;;;9.52;;
52015;SDS011;38032;53.326;6.472;2023-04-06T01:19:50;15.02;;;9.75;;
52015;SDS011;38032;53.326;6.472;2023-04-06T01:22:18;14.77;;;10.02;;
52015;SDS011;38032;53.326;6.472;2023-04-06T01:24:45;15.65;;;10.18;;
52015;SDS011;38032;53.326;6.472;2023-04-06T01:27:11;13.68;;;9.57;;
52015;SDS011;38032;53.326;6.472;2023-04-06T01:29:38;16.40;;;10.00;;
52015;SDS011;38032;53.326;6.472;2023-04-06T01:32:07;15.00;;;10.32;;
52015;SDS011;38032;53.326;6.472;2023-04-06T01:34:33;14.60;;;10.18;;
52015;SDS011;38032;53.326;6.472;2023-04-06T01:36:59;15.55;;;9.82;;
52015;SDS011;38032;53.326;6.472;2023-04-06T01:39:25;17.02;;;11.00;;
52015;SDS011;38032;53.326;6.472;2023-04-06T01:41:51;15.20;;;11.07;;
52015;SDS011;38032;53.326;6.472;2023-04-06T01:44:17;16.77;;;9.77;;
52015;SDS011;38032;53.326;6.472;2023-04-06T01:46:44;16.10;;;10.70;;
52015;SDS011;38032;53.326;6.472;2023-04-06T01:49:11;16.38;;;11.15;;
52015;SDS011;38032;53.326;6.472;2023-04-06T01:51:37;17.42;;;10.73;;
52015;SDS011;38032;53.326;6.472;2023-04-06T01:54:04;17.83;;;10.90;;
52015;SDS011;38032;53.326;6.472;2023-04-06T01:56:30;17.65;;;11.43;;
52015;SDS011;38032;53.326;6.472;2023-04-06T01:58:55;15.65;;;10.82;;
52015;SDS011;38032;53.326;6.472;2023-04-06T02:01:21;15.90;;;11.27;;
52015;SDS011;38032;53.326;6.472;2023-04-06T02:03:47;19.00;;;11.65;;
52015;SDS011;38032;53.326;6.472;2023-04-06T02:06:13;15.52;;;10.73;;
52015;SDS011;38032;53.326;6.472;2023-04-06T02:08:39;16.42;;;11.02;;
52015;SDS011;38032;53.326;6.472;2023-04-06T02:11:05;21.17;;;11.80;;
52015;SDS011;38032;53.326;6.472;2023-04-06T02:13:31;17.48;;;11.50;;
52015;SDS011;38032;53.326;6.472;2023-04-06T02:15:57;17.08;;;11.40;;
52015;SDS011;38032;53.326;6.472;2023-04-06T02:18:23;18.35;;;11.27;;
52015;SDS011;38032;53.326;6.472;2023-04-06T02:20:49;18.05;;;11.07;;
52015;SDS011;38032;53.326;6.472;2023-04-06T02:23:14;17.42;;;11.50;;
52015;SDS011;38032;53.326;6.472;2023-04-06T02:25:40;17.38;;;12.00;;
52015;SDS011;38032;53.326;6.472;2023-04-06T02:28:07;19.08;;;11.85;;
52015;SDS011;38032;53.326;6.472;2023-04-06T02:30:33;15.75;;;11.00;;
52015;SDS011;38032;53.326;6.472;2023-04-06T02:33:00;17.58;;;11.05;;
52015;SDS011;38032;53.326;6.472;2023-04-06T02:35:27;16.65;;;11.75;;
52015;SDS011;38032;53.326;6.472;2023-04-06T02:37:53;18.35;;;12.57;;
52015;SDS011;38032;53.326;6.472;2023-04-06T02:40:19;21.05;;;11.80;;
52015;SDS011;38032;53.326;6.472;2023-04-06T02:42:45;18.83;;;11.80;;
52015;SDS011;38032;53.326;6.472;2023-04-06T02:45:11;19.67;;;12.02;;
52015;SDS011;38032;53.326;6.472;2023-04-06T02:47:37;15.70;;;11.38;;
52015;SDS011;38032;53.326;6.472;2023-04-06T02:50:03;17.10;;;12.20;;
52015;SDS011;38032;53.326;6.472;2023-04-06T02:52:30;18.00;;;11.77;;
52015;SDS011;38032;53.326;6.472;2023-04-06T02:54:56;18.83;;;11.75;;
52015;SDS011;38032;53.326;6.472;2023-04-06T02:57:22;16.83;;;12.43;;
52015;SDS011;38032;53.326;6.472;2023-04-06T02:59:48;19.40;;;12.27;;
52015;SDS011;38032;53.326;6.472;2023-04-06T03:02:14;20.52;;;12.30;;
52015;SDS011;38032;53.326;6.472;2023-04-06T03:04:40;21.15;;;12.48;;
52015;SDS011;38032;53.326;6.472;2023-04-06T03:07:06;18.50;;;11.60;;
52015;SDS011;38032;53.326;6.472;2023-04-06T03:09:32;17.75;;;11.43;;
52015;SDS011;38032;53.326;6.472;2023-04-06T03:11:58;20.42;;;12.85;;
52015;SDS011;38032;53.326;6.472;2023-04-06T03:14:25;17.48;;;12.50;;
52015;SDS011;38032;53.326;6.472;2023-04-06T03:16:52;22.73;;;13.18;;
52015;SDS011;38032;53.326;6.472;2023-04-06T03:19:18;17.88;;;12.02;;
52015;SDS011;38032;53.326;6.472;2023-04-06T03:21:44;20.38;;;12.50;;
52015;SDS011;38032;53.326;6.472;2023-04-06T03:24:10;18.92;;;12.40;;
52015;SDS011;38032;53.326;6.472;2023-04-06T03:26:35;20.02;;;12.52;;
52015;SDS011;38032;53.326;6.472;2023-04-06T03:29:01;17.20;;;11.98;;
52015;SDS011;38032;53.326;6.472;2023-04-06T03:31:27;20.08;;;12.18;;
52015;SDS011;38032;53.326;6.472;2023-04-06T03:33:53;19.05;;;12.07;;
52015;SDS011;38032;53.326;6.472;2023-04-06T03:36:19;17.17;;;11.73;;
52015;SDS011;38032;53.326;6.472;2023-04-06T03:38:45;19.58;;;12.25;;
52015;SDS011;38032;53.326;6.472;2023-04-06T03:41:11;18.45;;;12.23;;
52015;SDS011;38032;53.326;6.472;2023-04-06T03:43:36;17.27;;;11.23;;
52015;SDS011;38032;53.326;6.472;2023-04-06T03:46:02;20.65;;;13.00;;
52015;SDS011;38032;53.326;6.472;2023-04-06T03:48:28;21.67;;;13.80;;
52015;SDS011;38032;53.326;6.472;2023-04-06T03:50:54;17.88;;;12.48;;
52015;SDS011;38032;53.326;6.472;2023-04-06T03:53:20;20.27;;;12.80;;
52015;SDS011;38032;53.326;6.472;2023-04-06T03:55:46;21.60;;;13.10;;
52015;SDS011;38032;53.326;6.472;2023-04-06T03:58:12;19.70;;;13.07;;
52015;SDS011;38032;53.326;6.472;2023-04-06T04:00:38;18.23;;;12.65;;
52015;SDS011;38032;53.326;6.472;2023-04-06T04:03:03;17.30;;;12.07;;
52015;SDS011;38032;53.326;6.472;2023-04-06T04:05:30;19.40;;;12.73;;
52015;SDS011;38032;53.326;6.472;2023-04-06T04:07:56;17.52;;;12.02;;
52015;SDS011;38032;53.326;6.472;2023-04-06T04:10:21;18.70;;;11.82;;
52015;SDS011;38032;53.326;6.472;2023-04-06T04:12:47;19.52;;;12.13;;
52015;SDS011;38032;53.326;6.472;2023-04-06T04:15:13;16.30;;;11.68;;
52015;SDS011;38032;53.326;6.472;2023-04-06T04:17:39;16.73;;;11.32;;
52015;SDS011;38032;53.326;6.472;2023-04-06T04:20:05;22.17;;;12.95;;
52015;SDS011;38032;53.326;6.472;2023-04-06T04:22:32;17.35;;;12.05;;
52015;SDS011;38032;53.326;6.472;2023-04-06T04:24:57;17.27;;;12.23;;
52015;SDS011;38032;53.326;6.472;2023-04-06T04:27:23;17.30;;;12.05;;
52015;SDS011;38032;53.326;6.472;2023-04-06T04:29:49;18.35;;;12.50;;
52015;SDS011;38032;53.326;6.472;2023-04-06T04:32:15;18.25;;;12.35;;
52015;SDS011;38032;53.326;6.472;2023-04-06T04:34:41;19.90;;;11.20;;
52015;SDS011;38032;53.326;6.472;2023-04-06T04:37:07;21.05;;;11.82;;
52015;SDS011;38032;53.326;6.472;2023-04-06T04:39:33;15.98;;;11.20;;
52015;SDS011;38032;53.326;6.472;2023-04-06T04:41:59;19.00;;;11.68;;
52015;SDS011;38032;53.326;6.472;2023-04-06T04:44:25;18.52;;;11.30;;
52015;SDS011;38032;53.326;6.472;2023-04-06T04:46:51;17.08;;;12.10;;
52015;SDS011;38032;53.326;6.472;2023-04-06T04:49:17;19.60;;;12.13;;
52015;SDS011;38032;53.326;6.472;2023-04-06T04:51:43;23.15;;;11.68;;
52015;SDS011;38032;53.326;6.472;2023-04-06T04:54:09;17.63;;;11.30;;
52015;SDS011;38032;53.326;6.472;2023-04-06T04:56:35;19.75;;;12.27;;
52015;SDS011;38032;53.326;6.472;2023-04-06T04:59:01;18.42;;;11.52;;
52015;SDS011;38032;53.326;6.472;2023-04-06T05:01:27;17.90;;;12.35;;
52015;SDS011;38032;53.326;6.472;2023-04-06T05:03:52;17.58;;;11.82;;
52015;SDS011;38032;53.326;6.472;2023-04-06T05:06:19;20.25;;;12.27;;
52015;SDS011;38032;53.326;6.472;2023-04-06T05:08:45;19.38;;;12.30;;
52015;SDS011;38032;53.326;6.472;2023-04-06T05:11:11;20.83;;;12.43;;
52015;SDS011;38032;53.326;6.472;2023-04-06T05:13:37;21.55;;;12.23;;
52015;SDS011;38032;53.326;6.472;2023-04-06T05:16:03;19.17;;;11.93;;
52015;SDS011;38032;53.326;6.472;2023-04-06T05:18:29;18.67;;;11.85;;
52015;SDS011;38032;53.326;6.472;2023-04-06T05:20:55;17.90;;;12.20;;
52015;SDS011;38032;53.326;6.472;2023-04-06T05:23:21;17.85;;;11.80;;
52015;SDS011;38032;53.326;6.472;2023-04-06T05:25:46;16.08;;;11.80;;
52015;SDS011;38032;53.326;6.472;2023-04-06T05:28:12;19.83;;;11.93;;
52015;SDS011;38032;53.326;6.472;2023-04-06T05:30:40;18.50;;;11.85;;
52015;SDS011;38032;53.326;6.472;2023-04-06T05:33:07;15.23;;;11.00;;
52015;SDS011;38032;53.326;6.472;2023-04-06T05:35:33;16.02;;;11.15;;
52015;SDS011;38032;53.326;6.472;2023-04-06T05:37:59;18.90;;;11.63;;
52015;SDS011;38032;53.326;6.472;2023-04-06T05:40:25;13.75;;;10.63;;
52015;SDS011;38032;53.326;6.472;2023-04-06T05:42:51;16.38;;;10.70;;
52015;SDS011;38032;53.326;6.472;2023-04-06T05:45:17;18.42;;;11.38;;
52015;SDS011;38032;53.326;6.472;2023-04-06T05:47:43;18.63;;;11.60;;
52015;SDS011;38032;53.326;6.472;2023-04-06T05:50:10;17.08;;;11.73;;
52015;SDS011;38032;53.326;6.472;2023-04-06T05:52:37;14.80;;;10.60;;
52015;SDS011;38032;53.326;6.472;2023-04-06T05:55:03;15.65;;;10.77;;
52015;SDS011;38032;53.326;6.472;2023-04-06T05:57:29;18.08;;;11.20;;
52015;SDS011;38032;53.326;6.472;2023-04-06T05:59:55;15.77;;;10.82;;
52015;SDS011;38032;53.326;6.472;2023-04-06T06:02:21;15.13;;;10.55;;
52015;SDS011;38032;53.326;6.472;2023-04-06T06:04:47;16.73;;;11.00;;
52015;SDS011;38032;53.326;6.472;2023-04-06T06:07:14;16.45;;;11.15;;
52015;SDS011;38032;53.326;6.472;2023-04-06T06:09:40;13.88;;;10.15;;
52015;SDS011;38032;53.326;6.472;2023-04-06T06:12:06;15.20;;;10.25;;
52015;SDS011;38032;53.326;6.472;2023-04-06T06:14:32;13.55;;;10.57;;
52015;SDS011;38032;53.326;6.472;2023-04-06T06:16:58;14.85;;;10.68;;
52015;SDS011;38032;53.326;6.472;2023-04-06T06:19:24;18.00;;;10.20;;
52015;SDS011;38032;53.326;6.472;2023-04-06T06:21:50;15.07;;;9.93;;
52015;SDS011;38032;53.326;6.472;2023-04-06T06:24:16;15.65;;;10.60;;
52015;SDS011;38032;53.326;6.472;2023-04-06T06:26:42;14.15;;;9.80;;
52015;SDS011;38032;53.326;6.472;2023-04-06T06:29:08;14.93;;;10.02;;
52015;SDS011;38032;53.326;6.472;2023-04-06T06:31:34;14.50;;;10.05;;
52015;SDS011;38032;53.326;6.472;2023-04-06T06:34:00;16.45;;;10.43;;
52015;SDS011;38032;53.326;6.472;2023-04-06T06:36:27;15.07;;;10.80;;
52015;SDS011;38032;53.326;6.472;2023-04-06T06:38:54;14.65;;;10.57;;
52015;SDS011;38032;53.326;6.472;2023-04-06T06:41:20;12.93;;;9.48;;
52015;SDS011;38032;53.326;6.472;2023-04-06T06:43:45;15.25;;;10.40;;
52015;SDS011;38032;53.326;6.472;2023-04-06T06:46:11;15.27;;;9.65;;
52015;SDS011;38032;53.326;6.472;2023-04-06T06:48:37;12.93;;;9.07;;
52015;SDS011;38032;53.326;6.472;2023-04-06T06:51:03;14.73;;;9.30;;
52015;SDS011;38032;53.326;6.472;2023-04-06T06:53:29;12.48;;;9.50;;
52015;SDS011;38032;53.326;6.472;2023-04-06T06:55:55;13.55;;;9.75;;
52015;SDS011;38032;53.326;6.472;2023-04-06T06:58:21;12.70;;;9.52;;
52015;SDS011;38032;53.326;6.472;2023-04-06T07:00:47;13.38;;;9.60;;
52015;SDS011;38032;53.326;6.472;2023-04-06T07:03:13;12.55;;;9.20;;
52015;SDS011;38032;53.326;6.472;2023-04-06T07:05:39;13.32;;;9.60;;
52015;SDS011;38032;53.326;6.472;2023-04-06T07:08:14;11.80;;;9.25;;
52015;SDS011;38032;53.326;6.472;2023-04-06T07:10:40;14.90;;;9.57;;
52015;SDS011;38032;53.326;6.472;2023-04-06T07:13:06;12.35;;;9.02;;
52015;SDS011;38032;53.326;6.472;2023-04-06T07:15:32;9.75;;;8.55;;
52015;SDS011;38032;53.326;6.472;2023-04-06T07:17:57;11.50;;;8.48;;
52015;SDS011;38032;53.326;6.472;2023-04-06T07:20:24;12.60;;;8.70;;
52015;SDS011;38032;53.326;6.472;2023-04-06T07:22:50;12.07;;;8.48;;
52015;SDS011;38032;53.326;6.472;2023-04-06T07:25:16;11.35;;;9.40;;
52015;SDS011;38032;53.326;6.472;2023-04-06T07:27:42;11.30;;;8.57;;
52015;SDS011;38032;53.326;6.472;2023-04-06T07:30:08;13.43;;;8.77;;
52015;SDS011;38032;53.326;6.472;2023-04-06T07:32:34;10.52;;;8.98;;
52015;SDS011;38032;53.326;6.472;2023-04-06T07:35:01;12.18;;;9.30;;
52015;SDS011;38032;53.326;6.472;2023-04-06T07:37:27;11.25;;;8.95;;
52015;SDS011;38032;53.326;6.472;2023-04-06T07:39:53;11.55;;;9.23;;
52015;SDS011;38032;53.326;6.472;2023-04-06T07:42:19;10.48;;;8.65;;
52015;SDS011;38032;53.326;6.472;2023-04-06T07:44:44;12.82;;;8.70;;
52015;SDS011;38032;53.326;6.472;2023-04-06T07:47:11;13.10;;;8.88;;
52015;SDS011;38032;53.326;6.472;2023-04-06T07:49:36;11.07;;;8.65;;
52015;SDS011;38032;53.326;6.472;2023-04-06T07:52:02;11.52;;;8.18;;
52015;SDS011;38032;53.326;6.472;2023-04-06T07:54:28;15.60;;;8.40;;
52015;SDS011;38032;53.326;6.472;2023-04-06T07:56:54;11.20;;;8.55;;
52015;SDS011;38032;53.326;6.472;2023-04-06T07:59:20;11.65;;;7.93;;
52015;SDS011;38032;53.326;6.472;2023-04-06T08:01:46;11.82;;;7.95;;
52015;SDS011;38032;53.326;6.472;2023-04-06T08:04:12;11.43;;;8.88;;
52015;SDS011;38032;53.326;6.472;2023-04-06T08:06:38;10.02;;;8.70;;
52015;SDS011;38032;53.326;6.472;2023-04-06T08:09:04;12.13;;;8.90;;
52015;SDS011;38032;53.326;6.472;2023-04-06T08:11:30;10.65;;;8.50;;
52015;SDS011;38032;53.326;6.472;2023-04-06T08:13:56;10.63;;;8.35;;
52015;SDS011;38032;53.326;6.472;2023-04-06T08:16:22;11.30;;;8.45;;
52015;SDS011;38032;53.326;6.472;2023-04-06T08:18:49;12.57;;;8.55;;
52015;SDS011;38032;53.326;6.472;2023-04-06T08:21:15;10.32;;;8.45;;
52015;SDS011;38032;53.326;6.472;2023-04-06T08:23:41;9.45;;;8.30;;
52015;SDS011;38032;53.326;6.472;2023-04-06T08:26:07;11.52;;;8.60;;
52015;SDS011;38032;53.326;6.472;2023-04-06T08:28:32;12.07;;;8.55;;
52015;SDS011;38032;53.326;6.472;2023-04-06T08:31:02;11.02;;;8.95;;
52015;SDS011;38032;53.326;6.472;2023-04-06T08:33:29;10.73;;;8.77;;
52015;SDS011;38032;53.326;6.472;2023-04-06T08:35:56;10.00;;;8.18;;
52015;SDS011;38032;53.326;6.472;2023-04-06T08:38:22;11.38;;;8.60;;
52015;SDS011;38032;53.326;6.472;2023-04-06T08:40:48;9.82;;;8.30;;
52015;SDS011;38032;53.326;6.472;2023-04-06T08:43:16;12.55;;;8.90;;
52015;SDS011;38032;53.326;6.472;2023-04-06T08:45:47;10.20;;;8.88;;
52015;SDS011;38032;53.326;6.472;2023-04-06T08:48:13;10.45;;;8.50;;
52015;SDS011;38032;53.326;6.472;2023-04-06T08:50:40;10.80;;;8.75;;
52015;SDS011;38032;53.326;6.472;2023-04-06T08:53:07;9.88;;;8.20;;
52015;SDS011;38032;53.326;6.472;2023-04-06T08:55:33;9.98;;;8.52;;
52015;SDS011;38032;53.326;6.472;2023-04-06T08:58:00;10.15;;;8.43;;
52015;SDS011;38032;53.326;6.472;2023-04-06T09:00:27;11.15;;;8.85;;
52015;SDS011;38032;53.326;6.472;2023-04-06T09:02:54;9.77;;;8.02;;
52015;SDS011;38032;53.326;6.472;2023-04-06T09:05:23;11.32;;;8.05;;
52015;SDS011;38032;53.326;6.472;2023-04-06T09:07:51;11.98;;;8.13;;
52015;SDS011;38032;53.326;6.472;2023-04-06T09:10:17;9.93;;;8.20;;
52015;SDS011;38032;53.326;6.472;2023-04-06T09:12:43;11.52;;;8.52;;
52015;SDS011;38032;53.326;6.472;2023-04-06T09:15:21;9.57;;;8.10;;
52015;SDS011;38032;53.326;6.472;2023-04-06T09:17:47;12.20;;;7.82;;
52015;SDS011;38032;53.326;6.472;2023-04-06T09:20:13;10.77;;;8.05;;
52015;SDS011;38032;53.326;6.472;2023-04-06T09:22:39;10.73;;;8.57;;
52015;SDS011;38032;53.326;6.472;2023-04-06T09:25:07;10.15;;;8.32;;
52015;SDS011;38032;53.326;6.472;2023-04-06T09:27:35;11.60;;;8.27;;
52015;SDS011;38032;53.326;6.472;2023-04-06T09:30:06;11.02;;;8.48;;
52015;SDS011;38032;53.326;6.472;2023-04-06T09:32:43;11.52;;;8.10;;
52015;SDS011;38032;53.326;6.472;2023-04-06T09:35:17;9.27;;;8.07;;
52015;SDS011;38032;53.326;6.472;2023-04-06T09:37:45;12.57;;;8.85;;
52015;SDS011;38032;53.326;6.472;2023-04-06T09:40:13;10.10;;;8.00;;
52015;SDS011;38032;53.326;6.472;2023-04-06T09:42:42;10.65;;;9.00;;
52015;SDS011;38032;53.326;6.472;2023-04-06T09:45:12;11.80;;;8.93;;
52015;SDS011;38032;53.326;6.472;2023-04-06T09:47:39;13.07;;;9.32;;
52015;SDS011;38032;53.326;6.472;2023-04-06T09:50:08;11.20;;;8.80;;
52015;SDS011;38032;53.326;6.472;2023-04-06T09:55:17;12.68;;;9.38;;
52015;SDS011;38032;53.326;6.472;2023-04-06T09:57:50;12.18;;;9.77;;
52015;SDS011;38032;53.326;6.472;2023-04-06T10:00:22;18.60;;;10.00;;
52015;SDS011;38032;53.326;6.472;2023-04-06T10:02:51;12.10;;;9.63;;
52015;SDS011;38032;53.326;6.472;2023-04-06T10:08:05;14.18;;;9.68;;
52015;SDS011;38032;53.326;6.472;2023-04-06T10:10:34;12.57;;;10.77;;
52015;SDS011;38032;53.326;6.472;2023-04-06T10:13:00;13.93;;;11.00;;
52015;SDS011;38032;53.326;6.472;2023-04-06T10:15:27;13.93;;;10.38;;
52015;SDS011;38032;53.326;6.472;2023-04-06T10:17:55;12.73;;;10.43;;
52015;SDS011;38032;53.326;6.472;2023-04-06T10:22:57;12.80;;;10.07;;
52015;SDS011;38032;53.326;6.472;2023-04-06T10:25:30;11.65;;;9.80;;
52015;SDS011;38032;53.326;6.472;2023-04-06T10:27:59;13.85;;;9.98;;
52015;SDS011;38032;53.326;6.472;2023-04-06T10:30:26;12.95;;;10.27;;
52015;SDS011;38032;53.326;6.472;2023-04-06T10:32:53;14.25;;;10.90;;
52015;SDS011;38032;53.326;6.472;2023-04-06T10:35:18;16.48;;;10.80;;
52015;SDS011;38032;53.326;6.472;2023-04-06T10:37:46;13.40;;;10.90;;
52015;SDS011;38032;53.326;6.472;2023-04-06T10:40:19;12.88;;;10.98;;
52015;SDS011;38032;53.326;6.472;2023-04-06T10:42:47;15.13;;;10.52;;
52015;SDS011;38032;53.326;6.472;2023-04-06T10:45:19;19.00;;;11.38;;
52015;SDS011;38032;53.326;6.472;2023-04-06T10:47:48;13.93;;;11.32;;
52015;SDS011;38032;53.326;6.472;2023-04-06T10:50:15;14.70;;;11.60;;
52015;SDS011;38032;53.326;6.472;2023-04-06T10:52:43;15.77;;;11.38;;
52015;SDS011;38032;53.326;6.472;2023-04-06T10:55:11;14.18;;;11.70;;
52015;SDS011;38032;53.326;6.472;2023-04-06T10:57:39;16.45;;;10.68;;
52015;SDS011;38032;53.326;6.472;2023-04-06T11:00:05;14.10;;;11.45;;
52015;SDS011;38032;53.326;6.472;2023-04-06T11:02:34;15.73;;;11.80;;
52015;SDS011;38032;53.326;6.472;2023-04-06T11:05:03;16.13;;;11.75;;
52015;SDS011;38032;53.326;6.472;2023-04-06T11:07:29;18.80;;;12.10;;
52015;SDS011;38032;53.326;6.472;2023-04-06T11:09:55;18.10;;;12.55;;
52015;SDS011;38032;53.326;6.472;2023-04-06T11:12:23;16.70;;;12.73;;
52015;SDS011;38032;53.326;6.472;2023-04-06T11:14:54;18.00;;;13.88;;
52015;SDS011;38032;53.326;6.472;2023-04-06T11:17:26;24.65;;;17.98;;
52015;SDS011;38032;53.326;6.472;2023-04-06T11:19:53;25.00;;;18.75;;
52015;SDS011;38032;53.326;6.472;2023-04-06T11:22:20;22.98;;;16.27;;
52015;SDS011;38032;53.326;6.472;2023-04-06T11:24:46;24.95;;;19.65;;
52015;SDS011;38032;53.326;6.472;2023-04-06T11:27:12;32.53;;;20.77;;
52015;SDS011;38032;53.326;6.472;2023-04-06T11:29:41;22.20;;;17.88;;
52015;SDS011;38032;53.326;6.472;2023-04-06T11:32:07;23.17;;;18.10;;
52015;SDS011;38032;53.326;6.472;2023-04-06T11:34:34;29.70;;;20.75;;
52015;SDS011;38032;53.326;6.472;2023-04-06T11:37:03;28.10;;;20.70;;
52015;SDS011;38032;53.326;6.472;2023-04-06T11:39:37;27.10;;;19.25;;
52015;SDS011;38032;53.326;6.472;2023-04-06T11:42:05;26.85;;;19.67;;
52015;SDS011;38032;53.326;6.472;2023-04-06T11:44:31;28.42;;;21.05;;
52015;SDS011;38032;53.326;6.472;2023-04-06T11:47:01;29.08;;;20.40;;
52015;SDS011;38032;53.326;6.472;2023-04-06T11:49:28;31.50;;;21.73;;
52015;SDS011;38032;53.326;6.472;2023-04-06T11:51:55;31.95;;;21.30;;
52015;SDS011;38032;53.326;6.472;2023-04-06T11:54:30;29.38;;;21.70;;
52015;SDS011;38032;53.326;6.472;2023-04-06T11:56:58;30.77;;;22.90;;
52015;SDS011;38032;53.326;6.472;2023-04-06T11:59:26;31.63;;;21.48;;
52015;SDS011;38032;53.326;6.472;2023-04-06T12:01:52;27.00;;;20.40;;
52015;SDS011;38032;53.326;6.472;2023-04-06T12:04:19;26.95;;;20.00;;
52015;SDS011;38032;53.326;6.472;2023-04-06T12:06:45;28.67;;;19.73;;
52015;SDS011;38032;53.326;6.472;2023-04-06T12:09:11;29.77;;;20.30;;
52015;SDS011;38032;53.326;6.472;2023-04-06T12:11:37;25.52;;;19.65;;
52015;SDS011;38032;53.326;6.472;2023-04-06T12:14:04;27.10;;;19.52;;
52015;SDS011;38032;53.326;6.472;2023-04-06T12:16:30;27.35;;;19.17;;
52015;SDS011;38032;53.326;6.472;2023-04-06T12:18:56;23.85;;;18.42;;
52015;SDS011;38032;53.326;6.472;2023-04-06T12:21:22;23.92;;;18.65;;
52015;SDS011;38032;53.326;6.472;2023-04-06T12:23:48;27.25;;;19.95;;
52015;SDS011;38032;53.326;6.472;2023-04-06T12:26:14;26.60;;;19.80;;
52015;SDS011;38032;53.326;6.472;2023-04-06T12:28:40;25.90;;;18.70;;
52015;SDS011;38032;53.326;6.472;2023-04-06T12:31:06;27.35;;;18.92;;
52015;SDS011;38032;53.326;6.472;2023-04-06T12:33:32;27.60;;;19.30;;
52015;SDS011;38032;53.326;6.472;2023-04-06T12:35:57;26.92;;;18.83;;
52015;SDS011;38032;53.326;6.472;2023-04-06T12:38:23;27.17;;;18.83;;
52015;SDS011;38032;53.326;6.472;2023-04-06T12:40:49;26.30;;;18.65;;
52015;SDS011;38032;53.326;6.472;2023-04-06T12:43:15;25.20;;;18.73;;
52015;SDS011;38032;53.326;6.472;2023-04-06T12:45:41;28.55;;;19.75;;
52015;SDS011;38032;53.326;6.472;2023-04-06T12:48:07;29.48;;;20.55;;
52015;SDS011;38032;53.326;6.472;2023-04-06T12:50:33;28.98;;;19.40;;
52015;SDS011;38032;53.326;6.472;2023-04-06T12:52:59;30.55;;;20.65;;
52015;SDS011;38032;53.326;6.472;2023-04-06T12:55:24;25.63;;;18.63;;
52015;SDS011;38032;53.326;6.472;2023-04-06T12:57:51;29.75;;;20.65;;
52015;SDS011;38032;53.326;6.472;2023-04-06T13:00:17;30.50;;;21.05;;
52015;SDS011;38032;53.326;6.472;2023-04-06T13:02:43;27.83;;;19.83;;
52015;SDS011;38032;53.326;6.472;2023-04-06T13:05:12;27.58;;;19.30;;
52015;SDS011;38032;53.326;6.472;2023-04-06T13:07:43;28.75;;;20.25;;
52015;SDS011;38032;53.326;6.472;2023-04-06T13:10:10;27.23;;;19.88;;
52015;SDS011;38032;53.326;6.472;2023-04-06T13:12:35;27.95;;;20.83;;
52015;SDS011;38032;53.326;6.472;2023-04-06T13:15:01;27.98;;;20.05;;
52015;SDS011;38032;53.326;6.472;2023-04-06T13:17:28;28.90;;;20.50;;
52015;SDS011;38032;53.326;6.472;2023-04-06T13:19:54;28.35;;;20.27;;
52015;SDS011;38032;53.326;6.472;2023-04-06T13:22:20;29.52;;;19.95;;
52015;SDS011;38032;53.326;6.472;2023-04-06T13:24:46;26.27;;;19.15;;
52015;SDS011;38032;53.326;6.472;2023-04-06T13:27:12;29.45;;;20.27;;
52015;SDS011;38032;53.326;6.472;2023-04-06T13:29:38;26.67;;;19.38;;
52015;SDS011;38032;53.326;6.472;2023-04-06T13:32:04;27.38;;;19.05;;
52015;SDS011;38032;53.326;6.472;2023-04-06T13:34:30;30.15;;;20.08;;
52015;SDS011;38032;53.326;6.472;2023-04-06T13:36:56;28.25;;;19.80;;
52015;SDS011;38032;53.326;6.472;2023-04-06T13:39:22;27.55;;;19.65;;
52015;SDS011;38032;53.326;6.472;2023-04-06T13:41:48;26.40;;;19.35;;
52015;SDS011;38032;53.326;6.472;2023-04-06T13:44:14;29.73;;;19.40;;
52015;SDS011;38032;53.326;6.472;2023-04-06T13:46:40;26.85;;;19.48;;
52015;SDS011;38032;53.326;6.472;2023-04-06T13:49:06;29.63;;;19.70;;
52015;SDS011;38032;53.326;6.472;2023-04-06T13:51:32;26.50;;;19.15;;
52015;SDS011;38032;53.326;6.472;2023-04-06T13:53:58;28.83;;;20.30;;
52015;SDS011;38032;53.326;6.472;2023-04-06T13:56:24;26.75;;;18.90;;
52015;SDS011;38032;53.326;6.472;2023-04-06T13:58:53;26.80;;;18.70;;
52015;SDS011;38032;53.326;6.472;2023-04-06T14:01:20;26.00;;;18.83;;
52015;SDS011;38032;53.326;6.472;2023-04-06T14:03:45;25.48;;;16.95;;
52015;SDS011;38032;53.326;6.472;2023-04-06T14:06:13;23.10;;;15.23;;
52015;SDS011;38032;53.326;6.472;2023-04-06T14:08:39;24.15;;;15.07;;
52015;SDS011;38032;53.326;6.472;2023-04-06T14:11:06;19.13;;;12.32;;
52015;SDS011;38032;53.326;6.472;2023-04-06T14:13:37;13.50;;;9.77;;
52015;SDS011;38032;53.326;6.472;2023-04-06T14:16:03;13.80;;;8.98;;
52015;SDS011;38032;53.326;6.472;2023-04-06T14:18:29;15.77;;;9.75;;
52015;SDS011;38032;53.326;6.472;2023-04-06T14:20:56;14.85;;;10.52;;
52015;SDS011;38032;53.326;6.472;2023-04-06T14:23:23;17.63;;;10.52;;
52015;SDS011;38032;53.326;6.472;2023-04-06T14:25:51;15.45;;;10.90;;
52015;SDS011;38032;53.326;6.472;2023-04-06T14:28:27;15.07;;;11.13;;
52015;SDS011;38032;53.326;6.472;2023-04-06T14:30:53;16.98;;;11.75;;